sensor_id;sensor_type;location;lat;lon;timestamp;P1;durP1;ratioP1;P2;durP2;ratioP2
2187;SDS011;1100;52.014;8.540;2023-04-25T00:01:03;10.43;;;2.60;;
2187;SDS011;1100;52.014;8.540;2023-04-25T00:03:30;9.93;;;2.88;;
2187;SDS011;1100;52.014;8.540;2023-04-25T00:05:56;15.18;;;2.85;;
2187;SDS011;1100;52.014;8.540;2023-04-25T00:08:22;13.23;;;3.00;;
2187;SDS011;1100;52.014;8.540;2023-04-25T00:10:48;14.53;;;3.53;;
2187;SDS011;1100;52.014;8.540;2023-04-25T00:13:14;17.40;;;3.22;;
2187;SDS011;1100;52.014;8.540;2023-04-25T00:15:39;16.50;;;3.35;;
2187;SDS011;1100;52.014;8.540;2023-04-25T00:18:06;12.03;;;2.80;;
2187;SDS011;1100;52.014;8.540;2023-04-25T00:20:32;14.60;;;3.42;;
2187;SDS011;1100;52.014;8.540;2023-04-25T00:22:57;13.53;;;3.30;;
2187;SDS011;1100;52.014;8.540;2023-04-25T00:25:22;10.53;;;2.83;;
2187;SDS011;1100;52.014;8.540;2023-04-25T00:27:48;15.65;;;4.10;;
2187;SDS011;1100;52.014;8.540;2023-04-25T00:30:13;12.10;;;3.33;;
2187;SDS011;1100;52.014;8.540;2023-04-25T00:32:39;13.10;;;2.73;;
2187;SDS011;1100;52.014;8.540;2023-04-25T00:35:04;13.13;;;3.30;;
2187;SDS011;1100;52.014;8.540;2023-04-25T00:37:30;17.08;;;3.90;;
2187;SDS011;1100;52.014;8.540;2023-04-25T00:39:57;12.53;;;2.97;;
2187;SDS011;1100;52.014;8.540;2023-04-25T00:42:22;14.00;;;3.30;;
2187;SDS011;1100;52.014;8.540;2023-04-25T00:44:49;12.93;;;3.63;;
2187;SDS011;1100;52.014;8.540;2023-04-25T00:47:15;14.13;;;3.67;;
2187;SDS011;1100;52.014;8.540;2023-04-25T00:49:40;13.07;;;3.20;;
2187;SDS011;1100;52.014;8.540;2023-04-25T00:52:06;15.75;;;3.53;;
2187;SDS011;1100;52.014;8.540;2023-04-25T00:54:31;13.77;;;3.33;;
2187;SDS011;1100;52.014;8.540;2023-04-25T00:56:56;16.20;;;3.43;;
2187;SDS011;1100;52.014;8.540;2023-04-25T00:59:22;12.13;;;3.40;;
2187;SDS011;1100;52.014;8.540;2023-04-25T01:01:48;14.02;;;3.83;;
2187;SDS011;1100;52.014;8.540;2023-04-25T01:04:14;12.02;;;3.28;;
2187;SDS011;1100;52.014;8.540;2023-04-25T01:06:40;19.07;;;3.90;;
2187;SDS011;1100;52.014;8.540;2023-04-25T01:09:05;16.10;;;3.10;;
2187;SDS011;1100;52.014;8.540;2023-04-25T01:11:31;10.87;;;3.60;;
2187;SDS011;1100;52.014;8.540;2023-04-25T01:13:57;14.23;;;4.53;;
2187;SDS011;1100;52.014;8.540;2023-04-25T01:16:23;17.13;;;4.22;;
2187;SDS011;1100;52.014;8.540;2023-04-25T01:18:49;17.67;;;4.03;;
2187;SDS011;1100;52.014;8.540;2023-04-25T01:21:15;18.70;;;4.45;;
2187;SDS011;1100;52.014;8.540;2023-04-25T01:23:41;15.82;;;3.50;;
2187;SDS011;1100;52.014;8.540;2023-04-25T01:26:08;15.53;;;3.30;;
2187;SDS011;1100;52.014;8.540;2023-04-25T01:28:35;17.10;;;3.90;;
2187;SDS011;1100;52.014;8.540;2023-04-25T01:31:01;13.93;;;3.78;;
2187;SDS011;1100;52.014;8.540;2023-04-25T01:33:26;12.50;;;3.47;;
2187;SDS011;1100;52.014;8.540;2023-04-25T01:35:52;15.17;;;3.73;;
2187;SDS011;1100;52.014;8.540;2023-04-25T01:38:17;20.40;;;4.40;;
2187;SDS011;1100;52.014;8.540;2023-04-25T01:40:43;13.50;;;4.30;;
2187;SDS011;1100;52.014;8.540;2023-04-25T01:43:10;14.75;;;4.18;;
2187;SDS011;1100;52.014;8.540;2023-04-25T01:45:40;14.90;;;4.15;;
2187;SDS011;1100;52.014;8.540;2023-04-25T01:48:13;16.00;;;4.25;;
2187;SDS011;1100;52.014;8.540;2023-04-25T01:50:39;12.30;;;3.92;;
2187;SDS011;1100;52.014;8.540;2023-04-25T01:53:05;14.60;;;4.43;;
2187;SDS011;1100;52.014;8.540;2023-04-25T01:55:31;17.30;;;4.43;;
2187;SDS011;1100;52.014;8.540;2023-04-25T01:57:56;15.70;;;4.27;;
2187;SDS011;1100;52.014;8.540;2023-04-25T02:00:22;12.93;;;4.73;;
2187;SDS011;1100;52.014;8.540;2023-04-25T02:02:48;14.80;;;5.00;;
2187;SDS011;1100;52.014;8.540;2023-04-25T02:05:15;14.98;;;4.07;;
2187;SDS011;1100;52.014;8.540;2023-04-25T02:07:41;14.82;;;4.88;;
2187;SDS011;1100;52.014;8.540;2023-04-25T02:10:06;9.77;;;3.90;;
2187;SDS011;1100;52.014;8.540;2023-04-25T02:12:32;12.90;;;3.53;;
2187;SDS011;1100;52.014;8.540;2023-04-25T02:14:57;11.37;;;3.30;;
2187;SDS011;1100;52.014;8.540;2023-04-25T02:17:23;11.50;;;2.70;;
2187;SDS011;1100;52.014;8.540;2023-04-25T02:19:48;10.02;;;3.30;;
2187;SDS011;1100;52.014;8.540;2023-04-25T02:22:13;8.50;;;2.90;;
2187;SDS011;1100;52.014;8.540;2023-04-25T02:24:39;10.40;;;3.30;;
2187;SDS011;1100;52.014;8.540;2023-04-25T02:27:04;10.17;;;2.70;;
2187;SDS011;1100;52.014;8.540;2023-04-25T02:29:30;12.68;;;2.28;;
2187;SDS011;1100;52.014;8.540;2023-04-25T02:31:56;9.47;;;2.97;;
2187;SDS011;1100;52.014;8.540;2023-04-25T02:34:21;9.50;;;2.60;;
2187;SDS011;1100;52.014;8.540;2023-04-25T02:36:47;7.77;;;2.07;;
2187;SDS011;1100;52.014;8.540;2023-04-25T02:39:16;10.73;;;2.40;;
2187;SDS011;1100;52.014;8.540;2023-04-25T02:41:41;8.47;;;2.10;;
2187;SDS011;1100;52.014;8.540;2023-04-25T02:44:07;8.20;;;2.38;;
2187;SDS011;1100;52.014;8.540;2023-04-25T02:46:32;12.10;;;2.50;;
2187;SDS011;1100;52.014;8.540;2023-04-25T02:48:57;11.90;;;1.87;;
2187;SDS011;1100;52.014;8.540;2023-04-25T02:51:22;10.90;;;2.20;;
2187;SDS011;1100;52.014;8.540;2023-04-25T02:53:48;8.80;;;1.97;;
2187;SDS011;1100;52.014;8.540;2023-04-25T02:56:13;10.50;;;2.20;;
2187;SDS011;1100;52.014;8.540;2023-04-25T02:58:38;10.60;;;2.00;;
2187;SDS011;1100;52.014;8.540;2023-04-25T03:01:04;14.97;;;2.30;;
2187;SDS011;1100;52.014;8.540;2023-04-25T03:03:29;12.23;;;2.20;;
2187;SDS011;1100;52.014;8.540;2023-04-25T03:05:54;12.47;;;2.30;;
2187;SDS011;1100;52.014;8.540;2023-04-25T03:08:19;11.77;;;2.33;;
2187;SDS011;1100;52.014;8.540;2023-04-25T03:10:45;11.43;;;2.20;;
2187;SDS011;1100;52.014;8.540;2023-04-25T03:13:10;15.97;;;2.57;;
2187;SDS011;1100;52.014;8.540;2023-04-25T03:15:36;14.37;;;2.07;;
2187;SDS011;1100;52.014;8.540;2023-04-25T03:18:02;13.88;;;2.25;;
2187;SDS011;1100;52.014;8.540;2023-04-25T03:20:28;13.00;;;2.03;;
2187;SDS011;1100;52.014;8.540;2023-04-25T03:22:54;13.70;;;1.97;;
2187;SDS011;1100;52.014;8.540;2023-04-25T03:25:19;12.93;;;2.30;;
2187;SDS011;1100;52.014;8.540;2023-04-25T03:27:45;12.53;;;2.50;;
2187;SDS011;1100;52.014;8.540;2023-04-25T03:30:10;12.07;;;1.60;;
2187;SDS011;1100;52.014;8.540;2023-04-25T03:32:36;15.05;;;2.30;;
2187;SDS011;1100;52.014;8.540;2023-04-25T03:35:02;11.97;;;2.47;;
2187;SDS011;1100;52.014;8.540;2023-04-25T03:37:28;15.48;;;2.67;;
2187;SDS011;1100;52.014;8.540;2023-04-25T03:39:53;20.80;;;2.50;;
2187;SDS011;1100;52.014;8.540;2023-04-25T03:42:18;9.93;;;2.13;;
2187;SDS011;1100;52.014;8.540;2023-04-25T03:44:44;11.57;;;1.80;;
2187;SDS011;1100;52.014;8.540;2023-04-25T03:47:10;10.40;;;1.67;;
2187;SDS011;1100;52.014;8.540;2023-04-25T03:49:35;16.67;;;2.60;;
2187;SDS011;1100;52.014;8.540;2023-04-25T03:52:01;16.77;;;2.60;;
2187;SDS011;1100;52.014;8.540;2023-04-25T03:54:27;10.65;;;2.55;;
2187;SDS011;1100;52.014;8.540;2023-04-25T03:56:52;12.57;;;2.10;;
2187;SDS011;1100;52.014;8.540;2023-04-25T03:59:18;15.27;;;3.40;;
2187;SDS011;1100;52.014;8.540;2023-04-25T04:01:43;18.17;;;2.40;;
2187;SDS011;1100;52.014;8.540;2023-04-25T04:04:08;15.77;;;2.67;;
2187;SDS011;1100;52.014;8.540;2023-04-25T04:06:34;16.23;;;2.40;;
2187;SDS011;1100;52.014;8.540;2023-04-25T04:08:59;14.40;;;2.05;;
2187;SDS011;1100;52.014;8.540;2023-04-25T04:11:25;10.07;;;2.10;;
2187;SDS011;1100;52.014;8.540;2023-04-25T04:13:50;16.13;;;1.80;;
2187;SDS011;1100;52.014;8.540;2023-04-25T04:16:16;13.73;;;2.00;;
2187;SDS011;1100;52.014;8.540;2023-04-25T04:18:41;11.30;;;1.87;;
2187;SDS011;1100;52.014;8.540;2023-04-25T04:21:06;15.73;;;2.10;;
2187;SDS011;1100;52.014;8.540;2023-04-25T04:23:32;12.30;;;2.27;;
2187;SDS011;1100;52.014;8.540;2023-04-25T04:25:57;11.07;;;2.20;;
2187;SDS011;1100;52.014;8.540;2023-04-25T04:28:22;11.10;;;2.33;;
2187;SDS011;1100;52.014;8.540;2023-04-25T04:30:48;15.00;;;2.30;;
2187;SDS011;1100;52.014;8.540;2023-04-25T04:33:16;18.17;;;2.45;;
2187;SDS011;1100;52.014;8.540;2023-04-25T04:35:44;12.57;;;2.65;;
2187;SDS011;1100;52.014;8.540;2023-04-25T04:38:09;12.88;;;2.40;;
2187;SDS011;1100;52.014;8.540;2023-04-25T04:40:36;14.77;;;2.45;;
2187;SDS011;1100;52.014;8.540;2023-04-25T04:43:02;14.87;;;2.83;;
2187;SDS011;1100;52.014;8.540;2023-04-25T04:45:27;12.27;;;2.60;;
2187;SDS011;1100;52.014;8.540;2023-04-25T04:47:53;14.05;;;2.65;;
2187;SDS011;1100;52.014;8.540;2023-04-25T04:50:20;13.07;;;2.58;;
2187;SDS011;1100;52.014;8.540;2023-04-25T04:52:45;12.77;;;2.33;;
2187;SDS011;1100;52.014;8.540;2023-04-25T04:55:11;16.97;;;3.77;;
2187;SDS011;1100;52.014;8.540;2023-04-25T04:57:36;14.63;;;2.47;;
2187;SDS011;1100;52.014;8.540;2023-04-25T05:00:03;15.20;;;2.97;;
2187;SDS011;1100;52.014;8.540;2023-04-25T05:02:30;14.95;;;2.78;;
2187;SDS011;1100;52.014;8.540;2023-04-25T05:04:56;12.30;;;3.10;;
2187;SDS011;1100;52.014;8.540;2023-04-25T05:07:21;15.43;;;3.22;;
2187;SDS011;1100;52.014;8.540;2023-04-25T05:09:46;12.70;;;2.83;;
2187;SDS011;1100;52.014;8.540;2023-04-25T05:12:12;14.30;;;3.00;;
2187;SDS011;1100;52.014;8.540;2023-04-25T05:14:37;15.43;;;3.07;;
2187;SDS011;1100;52.014;8.540;2023-04-25T05:17:03;14.95;;;3.00;;
2187;SDS011;1100;52.014;8.540;2023-04-25T05:19:31;10.40;;;2.63;;
2187;SDS011;1100;52.014;8.540;2023-04-25T05:21:57;14.55;;;3.10;;
2187;SDS011;1100;52.014;8.540;2023-04-25T05:24:22;12.93;;;3.50;;
2187;SDS011;1100;52.014;8.540;2023-04-25T05:26:48;16.37;;;3.20;;
2187;SDS011;1100;52.014;8.540;2023-04-25T05:29:13;16.77;;;2.83;;
2187;SDS011;1100;52.014;8.540;2023-04-25T05:31:38;15.90;;;3.30;;
2187;SDS011;1100;52.014;8.540;2023-04-25T05:34:03;10.03;;;2.80;;
2187;SDS011;1100;52.014;8.540;2023-04-25T05:36:29;11.93;;;2.93;;
2187;SDS011;1100;52.014;8.540;2023-04-25T05:38:55;16.45;;;2.95;;
2187;SDS011;1100;52.014;8.540;2023-04-25T05:41:21;11.70;;;2.53;;
2187;SDS011;1100;52.014;8.540;2023-04-25T05:43:49;12.82;;;2.92;;
2187;SDS011;1100;52.014;8.540;2023-04-25T05:46:15;17.53;;;3.33;;
2187;SDS011;1100;52.014;8.540;2023-04-25T05:48:43;15.45;;;2.80;;
2187;SDS011;1100;52.014;8.540;2023-04-25T05:51:09;15.27;;;2.50;;
2187;SDS011;1100;52.014;8.540;2023-04-25T05:53:34;15.67;;;2.70;;
2187;SDS011;1100;52.014;8.540;2023-04-25T05:56:00;11.65;;;2.45;;
2187;SDS011;1100;52.014;8.540;2023-04-25T05:58:26;12.52;;;2.53;;
2187;SDS011;1100;52.014;8.540;2023-04-25T06:00:51;10.53;;;2.37;;
2187;SDS011;1100;52.014;8.540;2023-04-25T06:03:16;16.70;;;3.07;;
2187;SDS011;1100;52.014;8.540;2023-04-25T06:05:42;17.40;;;3.00;;
2187;SDS011;1100;52.014;8.540;2023-04-25T06:08:08;14.10;;;2.47;;
2187;SDS011;1100;52.014;8.540;2023-04-25T06:10:33;14.60;;;2.67;;
2187;SDS011;1100;52.014;8.540;2023-04-25T06:12:59;11.38;;;2.10;;
2187;SDS011;1100;52.014;8.540;2023-04-25T06:15:24;11.60;;;1.90;;
2187;SDS011;1100;52.014;8.540;2023-04-25T06:17:49;11.90;;;2.50;;
2187;SDS011;1100;52.014;8.540;2023-04-25T06:20:15;10.10;;;2.07;;
2187;SDS011;1100;52.014;8.540;2023-04-25T06:22:40;14.95;;;2.72;;
2187;SDS011;1100;52.014;8.540;2023-04-25T06:25:06;13.50;;;2.43;;
2187;SDS011;1100;52.014;8.540;2023-04-25T06:27:32;8.47;;;2.53;;
2187;SDS011;1100;52.014;8.540;2023-04-25T06:29:58;11.35;;;2.08;;
2187;SDS011;1100;52.014;8.540;2023-04-25T06:32:23;13.97;;;2.83;;
2187;SDS011;1100;52.014;8.540;2023-04-25T06:34:48;10.30;;;2.57;;
2187;SDS011;1100;52.014;8.540;2023-04-25T06:37:13;16.50;;;1.83;;
2187;SDS011;1100;52.014;8.540;2023-04-25T06:39:39;12.75;;;2.10;;
2187;SDS011;1100;52.014;8.540;2023-04-25T06:42:04;13.07;;;2.30;;
2187;SDS011;1100;52.014;8.540;2023-04-25T06:44:30;13.13;;;2.37;;
2187;SDS011;1100;52.014;8.540;2023-04-25T06:46:55;13.70;;;2.10;;
2187;SDS011;1100;52.014;8.540;2023-04-25T06:49:21;15.23;;;1.80;;
2187;SDS011;1100;52.014;8.540;2023-04-25T06:51:46;13.90;;;2.33;;
2187;SDS011;1100;52.014;8.540;2023-04-25T06:54:12;12.13;;;1.93;;
2187;SDS011;1100;52.014;8.540;2023-04-25T06:56:37;15.47;;;2.27;;
2187;SDS011;1100;52.014;8.540;2023-04-25T06:59:02;15.40;;;1.70;;
2187;SDS011;1100;52.014;8.540;2023-04-25T07:01:28;13.33;;;2.27;;
2187;SDS011;1100;52.014;8.540;2023-04-25T07:03:53;10.87;;;1.53;;
2187;SDS011;1100;52.014;8.540;2023-04-25T07:06:18;15.77;;;1.97;;
2187;SDS011;1100;52.014;8.540;2023-04-25T07:08:44;9.50;;;1.70;;
2187;SDS011;1100;52.014;8.540;2023-04-25T07:11:09;16.90;;;2.10;;
2187;SDS011;1100;52.014;8.540;2023-04-25T07:13:34;13.73;;;1.60;;
2187;SDS011;1100;52.014;8.540;2023-04-25T07:16:00;13.33;;;2.37;;
2187;SDS011;1100;52.014;8.540;2023-04-25T07:18:25;16.88;;;2.05;;
2187;SDS011;1100;52.014;8.540;2023-04-25T07:20:51;12.93;;;2.40;;
2187;SDS011;1100;52.014;8.540;2023-04-25T07:23:16;15.97;;;2.30;;
2187;SDS011;1100;52.014;8.540;2023-04-25T07:25:41;10.13;;;1.77;;
2187;SDS011;1100;52.014;8.540;2023-04-25T07:28:07;16.88;;;2.97;;
2187;SDS011;1100;52.014;8.540;2023-04-25T07:30:32;17.23;;;1.97;;
2187;SDS011;1100;52.014;8.540;2023-04-25T07:32:59;15.18;;;2.22;;
2187;SDS011;1100;52.014;8.540;2023-04-25T07:35:25;12.40;;;2.00;;
2187;SDS011;1100;52.014;8.540;2023-04-25T07:37:50;11.20;;;1.77;;
2187;SDS011;1100;52.014;8.540;2023-04-25T07:40:16;9.70;;;1.90;;
2187;SDS011;1100;52.014;8.540;2023-04-25T07:42:41;11.13;;;1.85;;
2187;SDS011;1100;52.014;8.540;2023-04-25T07:45:07;9.23;;;1.63;;
2187;SDS011;1100;52.014;8.540;2023-04-25T07:47:32;11.83;;;1.80;;
2187;SDS011;1100;52.014;8.540;2023-04-25T07:49:57;10.60;;;1.90;;
2187;SDS011;1100;52.014;8.540;2023-04-25T07:52:23;9.50;;;1.10;;
2187;SDS011;1100;52.014;8.540;2023-04-25T07:54:48;15.53;;;1.83;;
2187;SDS011;1100;52.014;8.540;2023-04-25T07:57:13;12.77;;;1.40;;
2187;SDS011;1100;52.014;8.540;2023-04-25T07:59:39;10.63;;;1.83;;
2187;SDS011;1100;52.014;8.540;2023-04-25T08:02:05;11.47;;;1.23;;
2187;SDS011;1100;52.014;8.540;2023-04-25T08:04:30;13.15;;;1.77;;
2187;SDS011;1100;52.014;8.540;2023-04-25T08:06:56;10.47;;;1.60;;
2187;SDS011;1100;52.014;8.540;2023-04-25T08:09:21;8.83;;;1.30;;
2187;SDS011;1100;52.014;8.540;2023-04-25T08:11:47;10.23;;;1.65;;
2187;SDS011;1100;52.014;8.540;2023-04-25T08:14:13;10.93;;;1.50;;
2187;SDS011;1100;52.014;8.540;2023-04-25T08:16:38;11.45;;;1.27;;
2187;SDS011;1100;52.014;8.540;2023-04-25T08:19:04;11.37;;;1.30;;
2187;SDS011;1100;52.014;8.540;2023-04-25T08:21:30;5.95;;;1.30;;
2187;SDS011;1100;52.014;8.540;2023-04-25T08:23:56;10.57;;;1.70;;
2187;SDS011;1100;52.014;8.540;2023-04-25T08:26:23;6.27;;;0.80;;
2187;SDS011;1100;52.014;8.540;2023-04-25T08:28:49;8.63;;;1.35;;
2187;SDS011;1100;52.014;8.540;2023-04-25T08:31:14;8.93;;;1.20;;
2187;SDS011;1100;52.014;8.540;2023-04-25T08:33:39;10.32;;;1.40;;
2187;SDS011;1100;52.014;8.540;2023-04-25T08:36:05;9.07;;;1.70;;
2187;SDS011;1100;52.014;8.540;2023-04-25T08:38:30;9.20;;;1.13;;
2187;SDS011;1100;52.014;8.540;2023-04-25T08:40:56;7.32;;;0.93;;
2187;SDS011;1100;52.014;8.540;2023-04-25T08:43:24;10.10;;;1.00;;
2187;SDS011;1100;52.014;8.540;2023-04-25T08:45:50;9.15;;;1.30;;
2187;SDS011;1100;52.014;8.540;2023-04-25T08:48:18;8.07;;;0.88;;
2187;SDS011;1100;52.014;8.540;2023-04-25T08:50:50;5.87;;;1.00;;
2187;SDS011;1100;52.014;8.540;2023-04-25T08:53:20;7.47;;;0.80;;
2187;SDS011;1100;52.014;8.540;2023-04-25T08:55:47;7.10;;;0.88;;
2187;SDS011;1100;52.014;8.540;2023-04-25T08:58:14;10.18;;;0.90;;
2187;SDS011;1100;52.014;8.540;2023-04-25T09:00:40;10.73;;;1.35;;
2187;SDS011;1100;52.014;8.540;2023-04-25T09:03:05;9.40;;;1.10;;
2187;SDS011;1100;52.014;8.540;2023-04-25T09:05:32;7.07;;;1.00;;
2187;SDS011;1100;52.014;8.540;2023-04-25T09:07:58;6.93;;;0.90;;
2187;SDS011;1100;52.014;8.540;2023-04-25T09:10:23;10.07;;;1.30;;
2187;SDS011;1100;52.014;8.540;2023-04-25T09:15:52;7.95;;;1.33;;
2187;SDS011;1100;52.014;8.540;2023-04-25T09:18:23;8.07;;;1.02;;
2187;SDS011;1100;52.014;8.540;2023-04-25T09:20:53;6.85;;;1.23;;
2187;SDS011;1100;52.014;8.540;2023-04-25T09:23:20;10.20;;;1.30;;
2187;SDS011;1100;52.014;8.540;2023-04-25T09:25:53;9.63;;;1.30;;
2187;SDS011;1100;52.014;8.540;2023-04-25T09:28:25;6.75;;;1.10;;
2187;SDS011;1100;52.014;8.540;2023-04-25T09:30:54;7.65;;;1.50;;
2187;SDS011;1100;52.014;8.540;2023-04-25T09:33:23;6.63;;;1.10;;
2187;SDS011;1100;52.014;8.540;2023-04-25T09:35:52;13.47;;;1.13;;
2187;SDS011;1100;52.014;8.540;2023-04-25T09:38:20;6.93;;;1.67;;
2187;SDS011;1100;52.014;8.540;2023-04-25T09:40:47;5.47;;;0.80;;
2187;SDS011;1100;52.014;8.540;2023-04-25T09:43:23;7.80;;;1.13;;
2187;SDS011;1100;52.014;8.540;2023-04-25T09:45:53;6.85;;;1.00;;
2187;SDS011;1100;52.014;8.540;2023-04-25T09:48:22;4.70;;;0.93;;
2187;SDS011;1100;52.014;8.540;2023-04-25T09:51:31;5.82;;;0.80;;
2187;SDS011;1100;52.014;8.540;2023-04-25T09:53:40;7.70;;;0.77;;
2187;SDS011;1100;52.014;8.540;2023-04-25T09:56:07;8.13;;;1.10;;
2187;SDS011;1100;52.014;8.540;2023-04-25T09:58:34;6.57;;;0.95;;
2187;SDS011;1100;52.014;8.540;2023-04-25T10:01:01;6.63;;;0.93;;
2187;SDS011;1100;52.014;8.540;2023-04-25T10:03:32;5.03;;;0.75;;
2187;SDS011;1100;52.014;8.540;2023-04-25T10:06:02;6.30;;;0.73;;
2187;SDS011;1100;52.014;8.540;2023-04-25T10:08:34;7.13;;;1.30;;
2187;SDS011;1100;52.014;8.540;2023-04-25T10:11:01;6.32;;;0.80;;
2187;SDS011;1100;52.014;8.540;2023-04-25T10:13:32;6.47;;;0.97;;
2187;SDS011;1100;52.014;8.540;2023-04-25T10:15:59;8.07;;;0.82;;
2187;SDS011;1100;52.014;8.540;2023-04-25T10:18:26;5.97;;;0.80;;
2187;SDS011;1100;52.014;8.540;2023-04-25T10:20:53;5.00;;;0.90;;
2187;SDS011;1100;52.014;8.540;2023-04-25T10:23:25;6.05;;;0.77;;
2187;SDS011;1100;52.014;8.540;2023-04-25T10:25:52;7.37;;;0.60;;
2187;SDS011;1100;52.014;8.540;2023-04-25T10:28:18;7.18;;;0.73;;
2187;SDS011;1100;52.014;8.540;2023-04-25T10:30:56;5.10;;;0.77;;
2187;SDS011;1100;52.014;8.540;2023-04-25T10:33:29;6.10;;;0.70;;
2187;SDS011;1100;52.014;8.540;2023-04-25T10:35:57;7.78;;;0.90;;
2187;SDS011;1100;52.014;8.540;2023-04-25T10:38:23;4.57;;;0.80;;
2187;SDS011;1100;52.014;8.540;2023-04-25T10:41:24;5.82;;;0.80;;
2187;SDS011;1100;52.014;8.540;2023-04-25T10:43:44;6.22;;;0.90;;
2187;SDS011;1100;52.014;8.540;2023-04-25T10:46:17;5.35;;;1.05;;
2187;SDS011;1100;52.014;8.540;2023-04-25T10:48:47;8.38;;;1.10;;
2187;SDS011;1100;52.014;8.540;2023-04-25T10:51:23;6.13;;;1.20;;
2187;SDS011;1100;52.014;8.540;2023-04-25T10:56:39;5.07;;;0.80;;
2187;SDS011;1100;52.014;8.540;2023-04-25T10:59:10;6.15;;;0.95;;
2187;SDS011;1100;52.014;8.540;2023-04-25T11:01:38;4.75;;;0.80;;
2187;SDS011;1100;52.014;8.540;2023-04-25T11:04:25;7.47;;;1.07;;
2187;SDS011;1100;52.014;8.540;2023-04-25T11:09:47;5.90;;;1.20;;
2187;SDS011;1100;52.014;8.540;2023-04-25T11:12:13;5.93;;;1.05;;
2187;SDS011;1100;52.014;8.540;2023-04-25T11:14:39;4.75;;;0.80;;
2187;SDS011;1100;52.014;8.540;2023-04-25T11:17:05;7.10;;;1.20;;
2187;SDS011;1100;52.014;8.540;2023-04-25T11:19:31;7.38;;;1.05;;
2187;SDS011;1100;52.014;8.540;2023-04-25T11:21:57;6.30;;;0.90;;
2187;SDS011;1100;52.014;8.540;2023-04-25T11:24:28;7.57;;;1.05;;
2187;SDS011;1100;52.014;8.540;2023-04-25T11:26:54;8.43;;;1.00;;
2187;SDS011;1100;52.014;8.540;2023-04-25T11:29:23;4.63;;;0.70;;
2187;SDS011;1100;52.014;8.540;2023-04-25T11:31:52;5.90;;;0.73;;
2187;SDS011;1100;52.014;8.540;2023-04-25T11:34:18;6.18;;;1.00;;
2187;SDS011;1100;52.014;8.540;2023-04-25T11:36:44;6.37;;;1.00;;
2187;SDS011;1100;52.014;8.540;2023-04-25T11:39:11;9.98;;;1.23;;
2187;SDS011;1100;52.014;8.540;2023-04-25T11:41:40;5.78;;;0.88;;
2187;SDS011;1100;52.014;8.540;2023-04-25T11:44:06;6.45;;;1.13;;
2187;SDS011;1100;52.014;8.540;2023-04-25T11:46:35;5.50;;;0.70;;
2187;SDS011;1100;52.014;8.540;2023-04-25T11:49:00;6.97;;;1.08;;
2187;SDS011;1100;52.014;8.540;2023-04-25T11:51:26;5.73;;;1.00;;
2187;SDS011;1100;52.014;8.540;2023-04-25T11:53:52;5.47;;;1.02;;
2187;SDS011;1100;52.014;8.540;2023-04-25T11:56:17;7.37;;;1.03;;
2187;SDS011;1100;52.014;8.540;2023-04-25T11:58:56;7.00;;;0.93;;
2187;SDS011;1100;52.014;8.540;2023-04-25T12:01:25;7.72;;;1.15;;
2187;SDS011;1100;52.014;8.540;2023-04-25T12:03:51;6.22;;;0.80;;
2187;SDS011;1100;52.014;8.540;2023-04-25T12:06:17;6.17;;;0.90;;
2187;SDS011;1100;52.014;8.540;2023-04-25T12:08:58;8.10;;;0.80;;
2187;SDS011;1100;52.014;8.540;2023-04-25T12:11:29;7.07;;;0.88;;
2187;SDS011;1100;52.014;8.540;2023-04-25T12:13:55;7.82;;;1.20;;
2187;SDS011;1100;52.014;8.540;2023-04-25T12:16:20;6.27;;;0.80;;
2187;SDS011;1100;52.014;8.540;2023-04-25T12:18:46;6.37;;;0.63;;
2187;SDS011;1100;52.014;8.540;2023-04-25T12:21:11;4.47;;;0.90;;
2187;SDS011;1100;52.014;8.540;2023-04-25T12:23:38;5.57;;;0.70;;
2187;SDS011;1100;52.014;8.540;2023-04-25T12:26:04;4.93;;;0.60;;
2187;SDS011;1100;52.014;8.540;2023-04-25T12:28:31;6.22;;;0.68;;
2187;SDS011;1100;52.014;8.540;2023-04-25T12:33:29;4.82;;;0.65;;
2187;SDS011;1100;52.014;8.540;2023-04-25T12:35:56;7.00;;;0.70;;
2187;SDS011;1100;52.014;8.540;2023-04-25T12:38:26;5.68;;;0.70;;
2187;SDS011;1100;52.014;8.540;2023-04-25T12:40:54;6.70;;;0.70;;
2187;SDS011;1100;52.014;8.540;2023-04-25T12:43:20;4.43;;;0.70;;
2187;SDS011;1100;52.014;8.540;2023-04-25T12:45:49;6.05;;;0.63;;
2187;SDS011;1100;52.014;8.540;2023-04-25T12:48:18;9.50;;;0.65;;
2187;SDS011;1100;52.014;8.540;2023-04-25T12:50:44;5.47;;;0.80;;
2187;SDS011;1100;52.014;8.540;2023-04-25T12:53:12;3.92;;;0.52;;
2187;SDS011;1100;52.014;8.540;2023-04-25T12:55:37;5.97;;;0.67;;
2187;SDS011;1100;52.014;8.540;2023-04-25T12:58:03;4.77;;;0.60;;
2187;SDS011;1100;52.014;8.540;2023-04-25T13:00:28;3.07;;;0.60;;
2187;SDS011;1100;52.014;8.540;2023-04-25T13:02:54;4.20;;;0.68;;
2187;SDS011;1100;52.014;8.540;2023-04-25T13:05:21;6.23;;;1.20;;
2187;SDS011;1100;52.014;8.540;2023-04-25T13:07:46;4.72;;;0.68;;
2187;SDS011;1100;52.014;8.540;2023-04-25T13:10:11;4.73;;;0.70;;
2187;SDS011;1100;52.014;8.540;2023-04-25T13:12:37;5.83;;;0.70;;
2187;SDS011;1100;52.014;8.540;2023-04-25T13:15:02;6.20;;;0.70;;
2187;SDS011;1100;52.014;8.540;2023-04-25T13:17:28;4.82;;;0.75;;
2187;SDS011;1100;52.014;8.540;2023-04-25T13:19:53;5.20;;;0.50;;
2187;SDS011;1100;52.014;8.540;2023-04-25T13:22:18;2.70;;;0.50;;
2187;SDS011;1100;52.014;8.540;2023-04-25T13:24:45;4.25;;;0.43;;
2187;SDS011;1100;52.014;8.540;2023-04-25T13:27:10;8.13;;;1.00;;
2187;SDS011;1100;52.014;8.540;2023-04-25T13:29:36;4.20;;;0.73;;
2187;SDS011;1100;52.014;8.540;2023-04-25T13:32:03;3.08;;;0.50;;
2187;SDS011;1100;52.014;8.540;2023-04-25T13:34:29;5.38;;;0.50;;
2187;SDS011;1100;52.014;8.540;2023-04-25T13:36:55;3.23;;;0.50;;
2187;SDS011;1100;52.014;8.540;2023-04-25T13:39:20;7.45;;;0.70;;
2187;SDS011;1100;52.014;8.540;2023-04-25T13:41:46;4.77;;;0.70;;
2187;SDS011;1100;52.014;8.540;2023-04-25T13:44:11;5.07;;;0.60;;
2187;SDS011;1100;52.014;8.540;2023-04-25T13:46:36;4.63;;;0.73;;
2187;SDS011;1100;52.014;8.540;2023-04-25T13:49:02;3.60;;;0.80;;
2187;SDS011;1100;52.014;8.540;2023-04-25T13:51:28;4.13;;;0.60;;
2187;SDS011;1100;52.014;8.540;2023-04-25T13:53:54;5.90;;;0.63;;
2187;SDS011;1100;52.014;8.540;2023-04-25T13:56:19;2.73;;;0.50;;
2187;SDS011;1100;52.014;8.540;2023-04-25T13:58:45;3.65;;;0.60;;
2187;SDS011;1100;52.014;8.540;2023-04-25T14:01:10;3.63;;;0.63;;
2187;SDS011;1100;52.014;8.540;2023-04-25T14:03:35;5.10;;;0.70;;
2187;SDS011;1100;52.014;8.540;2023-04-25T14:06:01;4.37;;;0.53;;
2187;SDS011;1100;52.014;8.540;2023-04-25T14:08:26;4.80;;;0.70;;
2187;SDS011;1100;52.014;8.540;2023-04-25T14:10:52;3.63;;;0.50;;
2187;SDS011;1100;52.014;8.540;2023-04-25T14:13:17;5.10;;;0.70;;
2187;SDS011;1100;52.014;8.540;2023-04-25T14:15:42;5.30;;;0.80;;
2187;SDS011;1100;52.014;8.540;2023-04-25T14:18:08;3.23;;;0.50;;
2187;SDS011;1100;52.014;8.540;2023-04-25T14:20:33;4.75;;;0.73;;
2187;SDS011;1100;52.014;8.540;2023-04-25T14:22:59;3.17;;;0.70;;
2187;SDS011;1100;52.014;8.540;2023-04-25T14:25:24;6.17;;;0.90;;
2187;SDS011;1100;52.014;8.540;2023-04-25T14:27:50;6.30;;;0.80;;
2187;SDS011;1100;52.014;8.540;2023-04-25T14:30:16;3.40;;;0.50;;
2187;SDS011;1100;52.014;8.540;2023-04-25T14:32:43;4.78;;;0.55;;
2187;SDS011;1100;52.014;8.540;2023-04-25T14:35:08;5.55;;;0.50;;
2187;SDS011;1100;52.014;8.540;2023-04-25T14:37:34;4.07;;;0.60;;
2187;SDS011;1100;52.014;8.540;2023-04-25T14:39:59;3.83;;;0.50;;
2187;SDS011;1100;52.014;8.540;2023-04-25T14:42:24;4.47;;;0.67;;
2187;SDS011;1100;52.014;8.540;2023-04-25T14:44:50;3.75;;;0.50;;
2187;SDS011;1100;52.014;8.540;2023-04-25T14:47:16;5.13;;;0.50;;
2187;SDS011;1100;52.014;8.540;2023-04-25T14:49:41;3.47;;;0.73;;
2187;SDS011;1100;52.014;8.540;2023-04-25T14:52:07;3.20;;;0.53;;
2187;SDS011;1100;52.014;8.540;2023-04-25T14:54:32;6.47;;;0.60;;
2187;SDS011;1100;52.014;8.540;2023-04-25T14:56:58;5.45;;;0.50;;
2187;SDS011;1100;52.014;8.540;2023-04-25T14:59:23;3.87;;;0.50;;
2187;SDS011;1100;52.014;8.540;2023-04-25T15:01:49;7.37;;;0.70;;
2187;SDS011;1100;52.014;8.540;2023-04-25T15:04:15;4.60;;;0.93;;
2187;SDS011;1100;52.014;8.540;2023-04-25T15:06:42;7.78;;;0.73;;
2187;SDS011;1100;52.014;8.540;2023-04-25T15:09:07;4.50;;;0.70;;
2187;SDS011;1100;52.014;8.540;2023-04-25T15:11:35;4.60;;;1.00;;
2187;SDS011;1100;52.014;8.540;2023-04-25T15:14:01;3.97;;;0.43;;